Time;durP1;ratioP1;P1;durP2;ratioP2;P2;SDS_P1;SDS_P2;PMS_P1;PMS_P2;Temp;Humidity;BMP_temperature;BMP_pressure;BME280_temperature;BME280_humidity;BME280_pressure;Samples;Min_cycle;Max_cycle;Signal;HPM_P1;HPM_P2
2021/12/08 00:00:30;;;;;;;6.95;3.20;;;;;;;;;;5006170;28;20049;-62
2021/12/08 00:02:57;;;;;;;13.23;4.55;;;;;;;;;;5014915;28;20049;-62
2021/12/08 00:05:23;;;;;;;7.72;3.42;;;;;;;;;;5006317;28;20479;-62
2021/12/08 00:07:50;;;;;;;11.95;4.53;;;;;;;;;;4990208;28;20088;-62
2021/12/08 00:10:39;;;;;;;8.82;3.28;;;;;;;;;;4993911;28;20425;-62
2021/12/08 00:13:05;;;;;;;13.63;4.68;;;;;;;;;;5008673;28;20037;-62
2021/12/08 00:15:33;;;;;;;14.52;4.72;;;;;;;;;;5009123;28;20038;-62
2021/12/08 00:18:00;;;;;;;6.72;3.25;;;;;;;;;;5009948;28;20446;-63
2021/12/08 00:20:29;;;;;;;9.20;4.28;;;;;;;;;;5009935;28;20058;-62
2021/12/08 00:22:55;;;;;;;13.55;4.95;;;;;;;;;;5009853;28;20141;-63
2021/12/08 00:25:22;;;;;;;8.80;3.33;;;;;;;;;;5009417;28;20045;-63
2021/12/08 00:27:48;;;;;;;9.98;4.78;;;;;;;;;;5008871;28;20056;-62
2021/12/08 00:30:15;;;;;;;6.95;3.35;;;;;;;;;;4992331;28;20374;-62
2021/12/08 00:32:42;;;;;;;11.10;3.88;;;;;;;;;;5009327;28;20038;-62
2021/12/08 00:35:08;;;;;;;14.50;6.10;;;;;;;;;;5025723;28;20054;-62
2021/12/08 00:37:34;;;;;;;11.05;4.03;;;;;;;;;;5015661;28;20050;-63
2021/12/08 00:40:01;;;;;;;11.75;5.30;;;;;;;;;;5009400;28;20064;-62
2021/12/08 00:42:27;;;;;;;11.77;4.25;;;;;;;;;;5009040;28;20468;-62
2021/12/08 00:44:53;;;;;;;12.90;5.03;;;;;;;;;;4993197;28;20134;-62
2021/12/08 00:47:19;;;;;;;10.25;4.18;;;;;;;;;;5009883;28;20088;-63
2021/12/08 00:49:46;;;;;;;14.68;6.15;;;;;;;;;;5009120;28;20052;-63
2021/12/08 00:52:16;;;;;;;10.20;5.43;;;;;;;;;;5009082;28;21411;-63
2021/12/08 00:54:42;;;;;;;13.05;6.72;;;;;;;;;;5009138;28;20042;-62
2021/12/08 00:57:09;;;;;;;18.20;7.15;;;;;;;;;;5010033;28;20046;-62
2021/12/08 00:59:35;;;;;;;18.35;7.03;;;;;;;;;;5009233;28;20034;-63
2021/12/08 01:02:02;;;;;;;14.70;6.55;;;;;;;;;;5010537;28;20123;-61
2021/12/08 01:04:29;;;;;;;13.10;5.30;;;;;;;;;;5011044;28;20049;-61
2021/12/08 01:06:56;;;;;;;12.38;4.88;;;;;;;;;;4994524;28;20464;-61
2021/12/08 01:09:22;;;;;;;8.50;2.75;;;;;;;;;;5024833;28;20042;-61
2021/12/08 01:11:48;;;;;;;16.15;6.05;;;;;;;;;;5010581;28;20050;-61
2021/12/08 01:14:15;;;;;;;10.75;4.15;;;;;;;;;;5010597;28;20124;-61
2021/12/08 01:16:41;;;;;;;8.48;4.13;;;;;;;;;;5008801;28;20100;-61
2021/12/08 01:19:07;;;;;;;11.60;4.63;;;;;;;;;;5007824;28;20046;-61
2021/12/08 01:21:33;;;;;;;13.85;5.28;;;;;;;;;;5008917;28;20515;-62
2021/12/08 01:24:00;;;;;;;9.25;3.97;;;;;;;;;;5010226;28;20049;-61
2021/12/08 01:26:27;;;;;;;11.45;3.97;;;;;;;;;;5008823;28;20404;-61
2021/12/08 01:28:56;;;;;;;11.30;5.40;;;;;;;;;;4992570;28;20037;-61
2021/12/08 01:31:22;;;;;;;14.68;5.07;;;;;;;;;;5008408;28;20053;-61
2021/12/08 01:33:49;;;;;;;9.50;4.65;;;;;;;;;;4992505;28;20050;-62
2021/12/08 01:36:15;;;;;;;10.95;5.70;;;;;;;;;;5010293;28;20048;-61
2021/12/08 01:38:41;;;;;;;6.43;3.83;;;;;;;;;;4975156;28;20134;-61
2021/12/08 01:41:08;;;;;;;9.13;3.70;;;;;;;;;;5008206;28;20096;-61
2021/12/08 01:45:56;;;;;;;10.98;4.78;;;;;;;;;;5009430;28;20052;-62
2021/12/08 01:46:26;;;;;;;19.08;6.15;;;;;;;;;;5013010;28;20045;-62
2021/12/08 01:48:52;;;;;;;15.52;6.40;;;;;;;;;;5009559;28;20415;-61
2021/12/08 01:51:18;;;;;;;11.45;5.88;;;;;;;;;;5009115;28;20038;-62
2021/12/08 01:53:48;;;;;;;13.75;4.35;;;;;;;;;;5024437;28;20038;-61
2021/12/08 01:56:14;;;;;;;9.02;3.80;;;;;;;;;;5009515;28;20052;-61
2021/12/08 01:58:40;;;;;;;15.23;5.90;;;;;;;;;;5024499;28;20030;-61
2021/12/08 02:01:08;;;;;;;10.77;6.38;;;;;;;;;;5008085;28;20484;-62
2021/12/08 02:03:35;;;;;;;13.27;6.05;;;;;;;;;;5008859;28;20049;-61
2021/12/08 02:06:02;;;;;;;9.57;4.78;;;;;;;;;;5007903;28;20067;-61
2021/12/08 02:08:29;;;;;;;8.88;3.38;;;;;;;;;;5008112;28;20516;-61
2021/12/08 02:10:56;;;;;;;11.85;5.63;;;;;;;;;;5007752;28;20070;-62
2021/12/08 02:13:22;;;;;;;7.18;4.38;;;;;;;;;;5008739;28;20045;-62
2021/12/08 02:15:48;;;;;;;12.75;4.90;;;;;;;;;;5007697;28;20092;-61
2021/12/08 02:18:16;;;;;;;11.68;4.82;;;;;;;;;;5009087;28;20038;-61
2021/12/08 02:20:48;;;;;;;10.88;5.65;;;;;;;;;;5009154;28;20472;-62
2021/12/08 02:23:14;;;;;;;8.38;4.88;;;;;;;;;;5008524;28;20085;-61
2021/12/08 02:25:40;;;;;;;10.32;5.70;;;;;;;;;;5007897;28;20095;-61
2021/12/08 02:28:08;;;;;;;9.40;4.20;;;;;;;;;;5007476;28;20431;-61
2021/12/08 02:30:44;;;;;;;11.20;4.35;;;;;;;;;;5008465;28;20413;-61
2021/12/08 02:49:32;;;;;;;13.18;5.30;;;;;;;;;;5006479;28;20068;-62
2021/12/08 02:51:59;;;;;;;11.73;4.80;;;;;;;;;;5007232;28;20056;-61
2021/12/08 02:54:25;;;;;;;8.88;2.97;;;;;;;;;;5006768;28;20480;-61
2021/12/08 02:56:54;;;;;;;15.05;5.78;;;;;;;;;;5007237;28;20420;-61
2021/12/08 02:59:20;;;;;;;12.18;5.43;;;;;;;;;;5006751;28;20077;-61
2021/12/08 03:01:46;;;;;;;11.50;5.35;;;;;;;;;;5008530;28;20100;-61
2021/12/08 03:04:12;;;;;;;12.77;5.82;;;;;;;;;;5023294;28;20507;-61
2021/12/08 03:06:38;;;;;;;8.75;5.13;;;;;;;;;;5008478;28;20046;-61
2021/12/08 03:09:05;;;;;;;7.68;4.28;;;;;;;;;;5006990;28;20092;-61
2021/12/08 03:11:32;;;;;;;11.30;5.82;;;;;;;;;;5006756;28;20048;-61
2021/12/08 03:14:04;;;;;;;9.07;4.35;;;;;;;;;;5006986;28;20091;-61
2021/12/08 03:16:31;;;;;;;7.40;3.65;;;;;;;;;;5006746;28;20369;-61
2021/12/08 03:18:57;;;;;;;9.10;4.57;;;;;;;;;;5017064;28;20072;-61
2021/12/08 03:21:29;;;;;;;10.00;4.53;;;;;;;;;;5006216;28;20057;-61
2021/12/08 03:26:33;;;;;;;11.48;5.47;;;;;;;;;;5007216;28;20112;-60
2021/12/08 03:29:05;;;;;;;9.18;4.55;;;;;;;;;;5009064;28;20042;-61
2021/12/08 03:31:38;;;;;;;10.40;5.63;;;;;;;;;;4991472;28;20038;-61
2021/12/08 03:34:04;;;;;;;9.85;6.15;;;;;;;;;;5007480;28;20522;-61
2021/12/08 03:36:30;;;;;;;12.07;5.10;;;;;;;;;;5008358;28;20080;-61
2021/12/08 03:38:56;;;;;;;8.40;5.05;;;;;;;;;;5004323;28;20038;-61
2021/12/08 03:41:23;;;;;;;11.05;5.32;;;;;;;;;;5008121;28;20069;-61
2021/12/08 03:43:49;;;;;;;10.90;6.40;;;;;;;;;;5010408;28;20423;-61
2021/12/08 03:46:17;;;;;;;10.50;5.65;;;;;;;;;;5010542;28;20048;-61
2021/12/08 03:48:50;;;;;;;11.10;5.80;;;;;;;;;;5011658;28;20057;-61
2021/12/08 03:51:17;;;;;;;8.00;5.45;;;;;;;;;;5010457;28;20046;-61
2021/12/08 03:53:44;;;;;;;10.10;5.47;;;;;;;;;;5012275;28;20121;-61
2021/12/08 03:56:10;;;;;;;10.02;5.43;;;;;;;;;;5011868;28;20041;-61
2021/12/08 03:58:36;;;;;;;8.38;5.85;;;;;;;;;;5008163;28;20121;-61
2021/12/08 04:01:02;;;;;;;9.00;5.55;;;;;;;;;;5011714;28;20037;-61
2021/12/08 04:03:31;;;;;;;9.65;6.53;;;;;;;;;;5010594;28;20052;-62
2021/12/08 04:06:01;;;;;;;9.77;5.93;;;;;;;;;;5009990;28;20093;-62
2021/12/08 04:08:40;;;;;;;7.32;4.75;;;;;;;;;;5010736;28;20403;-62
2021/12/08 04:11:07;;;;;;;15.25;7.68;;;;;;;;;;5010226;28;20042;-62
2021/12/08 04:13:42;;;;;;;8.35;5.78;;;;;;;;;;5010608;28;20443;-62
2021/12/08 04:16:10;;;;;;;11.77;7.00;;;;;;;;;;4993704;28;20076;-63
2021/12/08 04:18:36;;;;;;;9.75;6.18;;;;;;;;;;5011708;28;20049;-62
2021/12/08 04:21:04;;;;;;;10.52;6.30;;;;;;;;;;5009763;28;20038;-62
2021/12/08 04:23:35;;;;;;;7.40;4.60;;;;;;;;;;5011407;28;20042;-62
2021/12/08 04:26:06;;;;;;;7.45;5.70;;;;;;;;;;5009351;28;20480;-62
2021/12/08 04:28:33;;;;;;;7.43;4.82;;;;;;;;;;5010122;28;20065;-62
2021/12/08 04:31:20;;;;;;;7.15;5.53;;;;;;;;;;5009665;28;20498;-62
2021/12/08 04:33:48;;;;;;;9.32;6.40;;;;;;;;;;5009900;28;20523;-63
2021/12/08 04:36:15;;;;;;;7.75;6.32;;;;;;;;;;5011124;28;20053;-63
2021/12/08 04:38:46;;;;;;;11.18;7.40;;;;;;;;;;5011233;28;20381;-61
2021/12/08 04:41:17;;;;;;;10.93;8.77;;;;;;;;;;5011251;28;20624;-61
2021/12/08 04:44:00;;;;;;;12.35;9.23;;;;;;;;;;4993915;28;20439;-61
2021/12/08 04:52:20;;;;;;;12.02;9.35;;;;;;;;;;5009430;28;20431;-62
2021/12/08 05:08:15;;;;;;;15.93;11.88;;;;;;;;;;5009502;28;20139;-62
2021/12/08 05:10:41;;;;;;;13.45;10.45;;;;;;;;;;5000232;28;20052;-62
2021/12/08 05:13:09;;;;;;;12.10;10.10;;;;;;;;;;4993107;28;20049;-62
2021/12/08 05:15:40;;;;;;;14.65;10.13;;;;;;;;;;5010531;28;20040;-62
2021/12/08 05:18:13;;;;;;;8.32;7.53;;;;;;;;;;5007397;28;20041;-62
2021/12/08 05:20:40;;;;;;;12.35;10.60;;;;;;;;;;5014775;28;20046;-62
2021/12/08 05:23:16;;;;;;;10.77;9.60;;;;;;;;;;5008713;28;20486;-62
2021/12/08 05:25:42;;;;;;;12.68;11.25;;;;;;;;;;5009162;28;20044;-62
2021/12/08 05:28:10;;;;;;;15.85;11.98;;;;;;;;;;5010214;28;20088;-63
2021/12/08 05:30:43;;;;;;;13.45;9.30;;;;;;;;;;5009253;28;20124;-62
2021/12/08 05:33:11;;;;;;;15.93;9.85;;;;;;;;;;5010150;28;20038;-62
2021/12/08 05:35:38;;;;;;;14.32;10.88;;;;;;;;;;5008915;28;20587;-63
2021/12/08 05:38:05;;;;;;;13.80;9.98;;;;;;;;;;5010299;28;20041;-62
2021/12/08 05:40:35;;;;;;;11.70;10.50;;;;;;;;;;5008880;28;20046;-62
2021/12/08 05:43:01;;;;;;;14.68;11.82;;;;;;;;;;5008361;28;20060;-62
2021/12/08 05:45:27;;;;;;;11.63;10.45;;;;;;;;;;5009666;28;20045;-62
2021/12/08 05:47:54;;;;;;;14.02;11.65;;;;;;;;;;5008256;28;20192;-62
2021/12/08 05:50:23;;;;;;;11.23;9.38;;;;;;;;;;5025142;28;20073;-62
2021/12/08 05:52:51;;;;;;;14.27;11.20;;;;;;;;;;5008261;28;20416;-62
2021/12/08 05:55:17;;;;;;;13.40;11.68;;;;;;;;;;5008358;28;20046;-62
2021/12/08 05:57:44;;;;;;;16.77;13.05;;;;;;;;;;5009673;28;20491;-62
2021/12/08 06:00:17;;;;;;;14.65;12.18;;;;;;;;;;5025071;28;20049;-62
2021/12/08 06:02:44;;;;;;;16.48;14.40;;;;;;;;;;5009391;28;20049;-60
2021/12/08 06:05:10;;;;;;;13.13;11.75;;;;;;;;;;5009011;28;20041;-61
2021/12/08 06:07:36;;;;;;;15.23;13.63;;;;;;;;;;5008087;28;20404;-60
2021/12/08 06:10:06;;;;;;;12.45;11.15;;;;;;;;;;5009355;28;20488;-60
2021/12/08 06:12:32;;;;;;;13.00;11.23;;;;;;;;;;5009665;28;20041;-61
2021/12/08 06:14:59;;;;;;;15.10;12.07;;;;;;;;;;5009221;28;20045;-60
2021/12/08 06:17:27;;;;;;;15.15;12.93;;;;;;;;;;5008022;28;20042;-60
2021/12/08 06:19:53;;;;;;;14.60;12.40;;;;;;;;;;5009312;28;20405;-60
2021/12/08 06:22:20;;;;;;;14.48;12.98;;;;;;;;;;5023914;28;20045;-61
2021/12/08 06:24:46;;;;;;;13.18;11.68;;;;;;;;;;5022936;28;20052;-61
2021/12/08 06:27:13;;;;;;;13.40;10.88;;;;;;;;;;5009058;28;20178;-60
2021/12/08 06:29:39;;;;;;;19.90;12.02;;;;;;;;;;5007806;28;20037;-60
2021/12/08 06:32:07;;;;;;;14.75;11.15;;;;;;;;;;5007661;28;20561;-62
2021/12/08 06:34:34;;;;;;;12.43;11.15;;;;;;;;;;4991432;28;20176;-61
2021/12/08 06:37:00;;;;;;;12.68;9.98;;;;;;;;;;5009316;28;20420;-60
2021/12/08 06:39:30;;;;;;;12.95;10.63;;;;;;;;;;5008570;28;20108;-62
2021/12/08 06:41:59;;;;;;;11.57;7.72;;;;;;;;;;5007274;28;20088;-62
2021/12/08 06:44:27;;;;;;;15.30;9.77;;;;;;;;;;5008943;28;20452;-62
2021/12/08 06:46:54;;;;;;;12.82;10.82;;;;;;;;;;5008531;28;20623;-61
2021/12/08 06:49:21;;;;;;;12.30;9.30;;;;;;;;;;5008343;28;20838;-62
2021/12/08 06:51:49;;;;;;;9.45;6.95;;;;;;;;;;5007536;28;20049;-62
2021/12/08 06:54:18;;;;;;;12.02;8.70;;;;;;;;;;5007441;28;20042;-62
2021/12/08 06:56:47;;;;;;;10.15;9.07;;;;;;;;;;5007414;28;20045;-62
2021/12/08 06:59:17;;;;;;;13.15;9.35;;;;;;;;;;5004792;28;20057;-62
2021/12/08 07:01:51;;;;;;;10.93;8.52;;;;;;;;;;5009053;28;20045;-62
2021/12/08 07:04:30;;;;;;;10.90;8.63;;;;;;;;;;5023678;28;20294;-62
2021/12/08 07:07:14;;;;;;;14.43;9.82;;;;;;;;;;5007467;28;20054;-62
2021/12/08 07:09:40;;;;;;;13.13;9.00;;;;;;;;;;5011582;28;20063;-61
2021/12/08 07:12:12;;;;;;;13.77;8.95;;;;;;;;;;5009685;28;20495;-62
2021/12/08 07:14:39;;;;;;;9.75;7.55;;;;;;;;;;5008155;28;20124;-63
2021/12/08 07:17:08;;;;;;;7.47;6.47;;;;;;;;;;5005538;28;20113;-63
2021/12/08 07:19:49;;;;;;;13.45;8.93;;;;;;;;;;5005070;28;20103;-63
2021/12/08 07:22:26;;;;;;;10.95;7.97;;;;;;;;;;5006849;28;20037;-62
2021/12/08 07:24:53;;;;;;;12.57;8.60;;;;;;;;;;5006937;28;20045;-63
2021/12/08 07:27:21;;;;;;;10.23;7.20;;;;;;;;;;5006595;28;20431;-63
2021/12/08 07:29:48;;;;;;;9.80;8.65;;;;;;;;;;5009227;28;20037;-61
2021/12/08 07:32:26;;;;;;;10.93;8.40;;;;;;;;;;5009878;28;20042;-63
2021/12/08 07:34:53;;;;;;;11.52;7.97;;;;;;;;;;5006356;28;20065;-63
2021/12/08 07:37:22;;;;;;;15.05;9.40;;;;;;;;;;5023600;28;20507;-62
2021/12/08 07:39:57;;;;;;;10.25;8.07;;;;;;;;;;5007947;28;20463;-62
2021/12/08 07:42:33;;;;;;;11.68;9.13;;;;;;;;;;5008490;28;20042;-62
2021/12/08 07:45:04;;;;;;;10.05;7.70;;;;;;;;;;5006238;28;20125;-62
2021/12/08 07:47:31;;;;;;;12.32;9.85;;;;;;;;;;4989892;28;20127;-63
2021/12/08 07:49:59;;;;;;;12.63;9.45;;;;;;;;;;5006649;28;20046;-61
2021/12/08 07:52:28;;;;;;;14.52;9.77;;;;;;;;;;5007862;28;20686;-61
2021/12/08 07:54:55;;;;;;;12.35;10.25;;;;;;;;;;5008103;28;20172;-62
2021/12/08 07:57:25;;;;;;;13.70;10.60;;;;;;;;;;5005356;28;20490;-62
2021/12/08 07:59:53;;;;;;;10.77;7.57;;;;;;;;;;5008190;28;20499;-63
2021/12/08 08:02:20;;;;;;;16.20;9.15;;;;;;;;;;5020107;28;20046;-62
2021/12/08 08:04:48;;;;;;;10.80;8.88;;;;;;;;;;5009625;28;20093;-62
2021/12/08 08:07:14;;;;;;;17.08;9.98;;;;;;;;;;5008874;28;20038;-61
2021/12/08 08:09:43;;;;;;;13.50;8.77;;;;;;;;;;5022807;28;20041;-61
2021/12/08 08:12:12;;;;;;;9.35;6.70;;;;;;;;;;4990526;28;20450;-61
2021/12/08 08:14:41;;;;;;;15.50;7.93;;;;;;;;;;5007605;28;20514;-61
2021/12/08 08:17:09;;;;;;;11.93;7.05;;;;;;;;;;5007522;28;20054;-63
2021/12/08 08:19:42;;;;;;;16.98;8.10;;;;;;;;;;5007013;28;20491;-62
2021/12/08 08:22:10;;;;;;;10.25;6.15;;;;;;;;;;5008176;28;20057;-62
2021/12/08 08:24:37;;;;;;;14.90;7.03;;;;;;;;;;5007694;28;20064;-62
2021/12/08 08:27:06;;;;;;;10.57;6.13;;;;;;;;;;5008979;28;20052;-62
2021/12/08 08:29:32;;;;;;;9.73;6.57;;;;;;;;;;5009969;28;20049;-62
2021/12/08 08:32:03;;;;;;;11.40;6.55;;;;;;;;;;5011456;28;20129;-62
2021/12/08 08:34:35;;;;;;;8.40;5.10;;;;;;;;;;5011453;28;20104;-62
2021/12/08 08:37:01;;;;;;;7.38;4.53;;;;;;;;;;5011063;28;20121;-62
2021/12/08 08:39:30;;;;;;;11.70;5.82;;;;;;;;;;5012147;28;20118;-62
2021/12/08 08:42:05;;;;;;;12.75;6.18;;;;;;;;;;5011387;28;20092;-62
2021/12/08 08:44:31;;;;;;;10.10;4.97;;;;;;;;;;4994900;28;20042;-63
2021/12/08 08:47:00;;;;;;;11.07;5.03;;;;;;;;;;4994473;28;20121;-62
2021/12/08 08:49:29;;;;;;;11.57;5.28;;;;;;;;;;5011808;28;20057;-62
2021/12/08 08:52:00;;;;;;;10.07;4.75;;;;;;;;;;5013443;28;20057;-63
2021/12/08 08:54:27;;;;;;;9.98;4.40;;;;;;;;;;5012391;28;20496;-62
2021/12/08 08:57:00;;;;;;;11.55;3.67;;;;;;;;;;5010731;28;20547;-62
2021/12/08 08:59:31;;;;;;;10.20;4.45;;;;;;;;;;5010527;28;20128;-62
2021/12/08 09:01:58;;;;;;;12.18;3.78;;;;;;;;;;5010741;28;20056;-62
2021/12/08 09:04:30;;;;;;;9.52;3.78;;;;;;;;;;5010381;28;20539;-62
2021/12/08 09:07:02;;;;;;;12.32;3.30;;;;;;;;;;5010425;28;20056;-62
2021/12/08 09:09:28;;;;;;;9.57;3.55;;;;;;;;;;5011695;28;20455;-62
2021/12/08 09:11:58;;;;;;;10.20;3.17;;;;;;;;;;5010665;28;20396;-62
2021/12/08 09:14:26;;;;;;;8.90;3.15;;;;;;;;;;5010736;28;20053;-62
2021/12/08 09:16:55;;;;;;;7.88;2.60;;;;;;;;;;5010079;28;20560;-60
2021/12/08 09:19:23;;;;;;;6.97;2.53;;;;;;;;;;5010309;28;20048;-60
2021/12/08 09:22:01;;;;;;;8.00;2.47;;;;;;;;;;5010386;28;20071;-60
2021/12/08 09:24:38;;;;;;;10.80;2.17;;;;;;;;;;5010398;28;20050;-61
2021/12/08 09:27:08;;;;;;;10.80;2.22;;;;;;;;;;5011652;28;20081;-60
2021/12/08 09:29:42;;;;;;;13.43;1.88;;;;;;;;;;5010157;28;20045;-61
2021/12/08 09:32:12;;;;;;;11.90;2.25;;;;;;;;;;5026937;28;20053;-62
2021/12/08 09:34:54;;;;;;;7.93;1.48;;;;;;;;;;5010273;28;20120;-62
2021/12/08 09:37:21;;;;;;;12.95;1.63;;;;;;;;;;5011641;28;20057;-60
2021/12/08 09:39:50;;;;;;;9.95;1.88;;;;;;;;;;5009229;28;20046;-60
2021/12/08 09:42:30;;;;;;;9.85;1.63;;;;;;;;;;5026650;28;20045;-60
2021/12/08 09:45:01;;;;;;;10.40;1.80;;;;;;;;;;5011424;28;20042;-60
2021/12/08 09:47:29;;;;;;;7.15;1.27;;;;;;;;;;5010882;28;20140;-61
2021/12/08 09:49:59;;;;;;;11.80;1.40;;;;;;;;;;5011606;28;20081;-62
2021/12/08 09:52:27;;;;;;;8.50;1.40;;;;;;;;;;5010108;28;20496;-61
2021/12/08 09:54:54;;;;;;;7.65;1.05;;;;;;;;;;5011363;28;20068;-61
2021/12/08 09:57:20;;;;;;;14.85;1.23;;;;;;;;;;5011333;28;20112;-61
2021/12/08 09:59:47;;;;;;;7.80;1.15;;;;;;;;;;5012151;28;20499;-61
2021/12/08 10:02:18;;;;;;;12.65;1.23;;;;;;;;;;5011622;28;20054;-61
2021/12/08 10:04:44;;;;;;;7.57;0.82;;;;;;;;;;5027279;28;20046;-61
2021/12/08 10:07:11;;;;;;;13.85;1.40;;;;;;;;;;5009664;28;20069;-62
2021/12/08 10:09:37;;;;;;;8.05;1.10;;;;;;;;;;5009471;28;20050;-62
2021/12/08 10:12:03;;;;;;;9.35;1.70;;;;;;;;;;5010875;28;20506;-62
2021/12/08 10:14:30;;;;;;;7.93;1.25;;;;;;;;;;5009403;28;20040;-62
2021/12/08 10:16:57;;;;;;;9.35;1.27;;;;;;;;;;5010589;28;20073;-62
2021/12/08 10:19:23;;;;;;;9.88;1.52;;;;;;;;;;5009297;28;20049;-62
2021/12/08 10:21:49;;;;;;;11.07;1.40;;;;;;;;;;5009163;28;20049;-62
2021/12/08 10:24:23;;;;;;;11.55;1.30;;;;;;;;;;5010180;28;20045;-61
2021/12/08 10:26:49;;;;;;;;;;;;;;;;;;5010238;28;20403;-62
2021/12/08 10:29:15;;;;;;;9.23;1.70;;;;;;;;;;5009001;28;19956;-62
2021/12/08 10:31:47;;;;;;;9.43;1.92;;;;;;;;;;5010277;28;20077;-62
2021/12/08 10:36:45;;;;;;;9.88;1.40;;;;;;;;;;5010473;28;20569;-62
2021/12/08 10:39:49;;;;;;;9.48;1.20;;;;;;;;;;5009021;28;20049;-62
2021/12/08 10:42:22;;;;;;;6.43;1.10;;;;;;;;;;5008687;28;20124;-62
2021/12/08 10:47:21;;;;;;;;;;;;;;;;;;5009073;28;20066;-62
2021/12/08 10:55:07;;;;;;;9.32;1.08;;;;;;;;;;5011101;28;20038;-61
2021/12/08 10:57:35;;;;;;;10.13;1.30;;;;;;;;;;5011139;28;20069;-61
2021/12/08 11:00:06;;;;;;;9.40;1.02;;;;;;;;;;5010817;28;20033;-60
2021/12/08 11:02:35;;;;;;;8.80;1.48;;;;;;;;;;5009538;28;20515;-60
2021/12/08 11:05:02;;;;;;;8.35;1.23;;;;;;;;;;5009344;28;20063;-60
2021/12/08 11:07:28;;;;;;;6.50;0.73;;;;;;;;;;5010568;28;20132;-60
2021/12/08 11:09:54;;;;;;;6.20;1.05;;;;;;;;;;5009313;28;20049;-60
2021/12/08 11:12:21;;;;;;;5.43;1.08;;;;;;;;;;5008648;28;20124;-60
2021/12/08 11:14:48;;;;;;;6.90;0.93;;;;;;;;;;4992756;28;20045;-60
2021/12/08 11:17:25;;;;;;;7.85;0.70;;;;;;;;;;5008334;28;20037;-60
2021/12/08 11:20:11;;;;;;;8.48;1.35;;;;;;;;;;5009810;28;20117;-60
2021/12/08 11:22:40;;;;;;;7.88;1.00;;;;;;;;;;5008860;28;20061;-60
2021/12/08 11:25:07;;;;;;;9.32;1.17;;;;;;;;;;5010579;28;20046;-61
2021/12/08 11:27:34;;;;;;;8.55;1.13;;;;;;;;;;5008585;28;20054;-60
2021/12/08 11:30:11;;;;;;;5.93;1.20;;;;;;;;;;5010372;28;20619;-61
2021/12/08 11:32:37;;;;;;;11.27;1.20;;;;;;;;;;5010437;28;20041;-61
2021/12/08 11:35:03;;;;;;;6.05;0.80;;;;;;;;;;5009052;28;20042;-60
2021/12/08 11:37:34;;;;;;;7.70;1.10;;;;;;;;;;5010689;28;20042;-60
2021/12/08 11:40:02;;;;;;;7.90;1.13;;;;;;;;;;4993666;28;20061;-61
2021/12/08 11:42:35;;;;;;;10.55;1.70;;;;;;;;;;5008833;28;20058;-60
2021/12/08 11:45:02;;;;;;;6.15;0.88;;;;;;;;;;5010392;28;20046;-60
2021/12/08 11:47:33;;;;;;;8.77;1.58;;;;;;;;;;5009943;28;20052;-61
2021/12/08 11:50:01;;;;;;;7.82;1.33;;;;;;;;;;5009112;28;20046;-60
2021/12/08 11:52:32;;;;;;;6.57;1.17;;;;;;;;;;5009128;28;20369;-60
2021/12/08 11:55:01;;;;;;;6.93;1.30;;;;;;;;;;5010224;28;20054;-60
2021/12/08 11:57:32;;;;;;;7.63;1.35;;;;;;;;;;5008403;28;20052;-60
2021/12/08 12:00:06;;;;;;;7.75;0.82;;;;;;;;;;5010269;28;20061;-60
2021/12/08 12:02:38;;;;;;;11.52;1.00;;;;;;;;;;5008760;28;20542;-60
2021/12/08 12:05:06;;;;;;;5.07;1.25;;;;;;;;;;5013612;28;20038;-60
2021/12/08 12:07:32;;;;;;;5.72;1.42;;;;;;;;;;5012360;28;20034;-60
2021/12/08 12:09:58;;;;;;;8.60;1.52;;;;;;;;;;4996413;28;20076;-60
2021/12/08 12:12:24;;;;;;;11.98;1.58;;;;;;;;;;5013897;28;20496;-60
2021/12/08 12:14:51;;;;;;;8.52;1.27;;;;;;;;;;5011509;28;20121;-60
2021/12/08 12:17:17;;;;;;;9.02;0.98;;;;;;;;;;5011476;28;20058;-60
2021/12/08 12:19:46;;;;;;;10.93;1.45;;;;;;;;;;5011845;28;20401;-60
2021/12/08 12:22:33;;;;;;;8.07;1.10;;;;;;;;;;5011531;28;20050;-60
2021/12/08 12:25:09;;;;;;;7.90;1.02;;;;;;;;;;5028076;28;20554;-60
2021/12/08 12:27:38;;;;;;;10.52;1.33;;;;;;;;;;5011815;28;20056;-60
2021/12/08 12:30:15;;;;;;;9.18;1.25;;;;;;;;;;5013051;28;20539;-60
2021/12/08 12:32:49;;;;;;;8.18;1.17;;;;;;;;;;5012813;28;20057;-60
2021/12/08 12:35:15;;;;;;;;;;;;;;;;;;5013303;28;20037;-60
2021/12/08 12:37:41;;;;;;;6.45;0.82;;;;;;;;;;5028207;28;19918;-60
2021/12/08 12:40:12;;;;;;;5.40;0.82;;;;;;;;;;5011254;28;20056;-60
2021/12/08 12:42:53;;;;;;;6.05;1.00;;;;;;;;;;5011457;28;20060;-60
2021/12/08 12:45:20;;;;;;;6.95;1.15;;;;;;;;;;5011005;28;20056;-60
2021/12/08 12:48:05;;;;;;;8.23;1.38;;;;;;;;;;5011089;28;20058;-60
2021/12/08 12:50:32;;;;;;;5.75;1.23;;;;;;;;;;5011036;28;20531;-60
2021/12/08 12:52:59;;;;;;;8.27;1.17;;;;;;;;;;5010984;28;20053;-60
2021/12/08 12:55:27;;;;;;;8.32;1.00;;;;;;;;;;5012244;28;20052;-60
2021/12/08 12:58:05;;;;;;;9.43;1.30;;;;;;;;;;5010975;28;20843;-60
2021/12/08 13:00:42;;;;;;;6.75;1.25;;;;;;;;;;5027730;28;20038;-60
2021/12/08 13:03:09;;;;;;;8.38;1.52;;;;;;;;;;5012176;28;20050;-60
2021/12/08 13:06:04;;;;;;;5.90;1.15;;;;;;;;;;5010820;28;20100;-60
2021/12/08 13:08:34;;;;;;;7.10;1.45;;;;;;;;;;4990097;28;20064;-60
2021/12/08 13:11:04;;;;;;;10.48;1.30;;;;;;;;;;5011130;28;20115;-60
2021/12/08 13:13:44;;;;;;;9.73;1.63;;;;;;;;;;5010894;28;20147;-60
2021/12/08 13:16:26;;;;;;;11.63;1.73;;;;;;;;;;5010428;28;20050;-60
2021/12/08 13:19:00;;;;;;;8.68;1.50;;;;;;;;;;5011817;28;20515;-60
2021/12/08 13:21:46;;;;;;;8.27;1.30;;;;;;;;;;5011984;28;20049;-60
2021/12/08 13:24:31;;;;;;;4.82;0.80;;;;;;;;;;5010254;28;20077;-60
2021/12/08 13:27:01;;;;;;;9.90;1.00;;;;;;;;;;5010374;28;20052;-60
2021/12/08 13:29:31;;;;;;;10.73;1.90;;;;;;;;;;5026781;28;20034;-60
2021/12/08 13:32:10;;;;;;;5.35;0.85;;;;;;;;;;5011703;28;20152;-60
2021/12/08 13:34:36;;;;;;;8.80;1.13;;;;;;;;;;5010362;28;20053;-60
2021/12/08 13:37:17;;;;;;;8.15;1.13;;;;;;;;;;5010414;28;20555;-60
2021/12/08 13:39:44;;;;;;;10.43;1.42;;;;;;;;;;5011563;28;20042;-60
2021/12/08 13:42:11;;;;;;;8.45;1.27;;;;;;;;;;5011750;28;20045;-60
2021/12/08 13:44:39;;;;;;;10.32;1.05;;;;;;;;;;5010153;28;20503;-60
2021/12/08 13:47:08;;;;;;;8.73;1.00;;;;;;;;;;5011648;28;20484;-60
2021/12/08 13:49:54;;;;;;;8.27;1.25;;;;;;;;;;5010004;28;20197;-60
2021/12/08 13:52:31;;;;;;;7.50;1.02;;;;;;;;;;4999869;28;20045;-60
2021/12/08 13:54:59;;;;;;;6.13;1.00;;;;;;;;;;5011504;28;20030;-60
2021/12/08 13:57:31;;;;;;;7.60;1.10;;;;;;;;;;5009494;28;20052;-59
2021/12/08 14:00:03;;;;;;;7.25;1.02;;;;;;;;;;5011072;28;20042;-59
2021/12/08 14:02:29;;;;;;;5.82;1.00;;;;;;;;;;5009847;28;20107;-60
2021/12/08 14:05:02;;;;;;;5.40;1.25;;;;;;;;;;5010944;28;20100;-60
2021/12/08 14:07:28;;;;;;;8.65;0.70;;;;;;;;;;5026647;28;20045;-60
2021/12/08 14:09:59;;;;;;;7.10;0.80;;;;;;;;;;5010141;28;20041;-61
2021/12/08 14:12:39;;;;;;;8.52;0.85;;;;;;;;;;5010276;28;20479;-61
2021/12/08 14:15:05;;;;;;;3.78;0.95;;;;;;;;;;5010764;28;20064;-60
2021/12/08 14:17:31;;;;;;;7.95;1.00;;;;;;;;;;5009993;28;20049;-60
2021/12/08 14:19:57;;;;;;;9.75;1.33;;;;;;;;;;5011399;28;20056;-60
2021/12/08 14:22:36;;;;;;;6.13;1.20;;;;;;;;;;5009871;28;20049;-60
2021/12/08 14:25:04;;;;;;;7.43;0.80;;;;;;;;;;5010395;28;20116;-60
2021/12/08 14:27:31;;;;;;;7.90;0.90;;;;;;;;;;5010533;28;20049;-60
2021/12/08 14:29:58;;;;;;;5.85;0.75;;;;;;;;;;5011187;28;20491;-61
2021/12/08 14:32:24;;;;;;;8.20;0.88;;;;;;;;;;5011176;28;20077;-60
2021/12/08 14:34:50;;;;;;;7.35;1.00;;;;;;;;;;5010962;28;20053;-60
2021/12/08 14:37:16;;;;;;;6.32;1.05;;;;;;;;;;5010737;28;20117;-60
2021/12/08 14:39:48;;;;;;;11.23;1.45;;;;;;;;;;5010864;28;20056;-60
2021/12/08 14:42:15;;;;;;;8.38;1.38;;;;;;;;;;5010870;28;20073;-60
2021/12/08 14:44:50;;;;;;;7.97;1.63;;;;;;;;;;5010898;28;20045;-60
2021/12/08 14:47:19;;;;;;;4.78;0.85;;;;;;;;;;5009601;28;20402;-60
2021/12/08 14:49:55;;;;;;;9.18;1.10;;;;;;;;;;5009694;28;20050;-60
2021/12/08 14:52:21;;;;;;;6.93;1.05;;;;;;;;;;5010379;28;20056;-60
2021/12/08 14:54:49;;;;;;;5.60;0.98;;;;;;;;;;5009861;28;20053;-60
2021/12/08 14:57:20;;;;;;;7.32;1.05;;;;;;;;;;5009579;28;20484;-60
2021/12/08 15:00:00;;;;;;;8.02;0.90;;;;;;;;;;5009393;28;20053;-60
2021/12/08 15:02:30;;;;;;;8.13;1.10;;;;;;;;;;5010508;28;20045;-60
2021/12/08 15:04:56;;;;;;;9.80;1.10;;;;;;;;;;5010829;28;20050;-60
2021/12/08 15:07:23;;;;;;;8.75;1.20;;;;;;;;;;5009023;28;20100;-60
2021/12/08 15:09:57;;;;;;;16.25;1.45;;;;;;;;;;5009178;28;20061;-60
2021/12/08 15:12:23;;;;;;;5.85;0.93;;;;;;;;;;5010579;28;20408;-60
2021/12/08 15:14:49;;;;;;;9.15;1.40;;;;;;;;;;5010531;28;20041;-60
2021/12/08 15:17:25;;;;;;;10.43;1.20;;;;;;;;;;5010213;28;20041;-59
2021/12/08 15:19:53;;;;;;;9.13;1.33;;;;;;;;;;5008529;28;20046;-59
2021/12/08 15:22:24;;;;;;;8.00;0.85;;;;;;;;;;5008649;28;20503;-59
2021/12/08 15:25:05;;;;;;;4.45;0.90;;;;;;;;;;5010040;28;20484;-59
2021/12/08 15:27:35;;;;;;;8.20;1.10;;;;;;;;;;5009571;28;20041;-59
2021/12/08 15:30:01;;;;;;;6.05;1.05;;;;;;;;;;5010276;28;20045;-59
2021/12/08 15:32:27;;;;;;;8.32;1.10;;;;;;;;;;5008688;28;20049;-59
2021/12/08 15:35:02;;;;;;;7.18;1.02;;;;;;;;;;5008424;28;20069;-59
2021/12/08 15:37:31;;;;;;;10.32;1.35;;;;;;;;;;5008859;28;20072;-60